Time;durP1;ratioP1;P1;durP2;ratioP2;P2;SDS_P1;SDS_P2;PMS_P1;PMS_P2;Temp;Humidity;BMP_temperature;BMP_pressure;BME280_temperature;BME280_humidity;BME280_pressure;Samples;Min_cycle;Max_cycle;Signal;HPM_P1;HPM_P2
2021/11/27 00:00:41;;;;;;;24.83;23.23;;;4.30;75.20;;;;;;5065294;28;20204;-71
2021/11/27 00:03:10;;;;;;;24.17;22.73;;;4.30;75.60;;;;;;5073839;28;20223;-71
2021/11/27 00:05:38;;;;;;;23.63;22.23;;;4.40;75.40;;;;;;5066851;28;20224;-71
2021/11/27 00:08:07;;;;;;;24.10;22.75;;;4.40;75.20;;;;;;5068755;28;20223;-71
2021/11/27 00:10:36;;;;;;;22.83;21.52;;;4.40;75.20;;;;;;5067203;28;20196;-71
2021/11/27 00:13:03;;;;;;;23.92;22.52;;;4.50;75.00;;;;;;5069916;28;20247;-71
2021/11/27 00:15:31;;;;;;;22.90;21.70;;;4.40;75.50;;;;;;5068618;28;20283;-71
2021/11/27 00:18:00;;;;;;;22.98;21.48;;;4.40;75.40;;;;;;5072241;28;20218;-71
2021/11/27 00:20:35;;;;;;;22.98;21.65;;;4.30;75.30;;;;;;5071245;28;20196;-71
2021/11/27 00:23:02;;;;;;;22.63;21.42;;;4.40;75.20;;;;;;5072112;28;20302;-72
2021/11/27 00:25:30;;;;;;;23.58;22.17;;;4.40;75.30;;;;;;5069368;28;20204;-71
2021/11/27 00:27:57;;;;;;;23.88;22.48;;;4.30;75.40;;;;;;5072120;28;20294;-71
2021/11/27 00:30:28;;;;;;;23.17;21.70;;;4.30;75.50;;;;;;5069314;28;20838;-71
2021/11/27 00:32:56;;;;;;;23.88;22.52;;;4.30;75.90;;;;;;5071707;28;20306;-71
2021/11/27 00:35:23;;;;;;;23.40;22.10;;;4.20;75.90;;;;;;5070904;28;20277;-71
2021/11/27 00:37:53;;;;;;;23.75;22.15;;;4.20;76.10;;;;;;5072336;28;20767;-71
2021/11/27 00:40:20;;;;;;;24.98;23.55;;;4.20;76.40;;;;;;5070128;28;20223;-71
2021/11/27 00:42:49;;;;;;;22.77;21.58;;;4.30;76.10;;;;;;5070569;28;20224;-71
2021/11/27 00:45:17;;;;;;;24.48;23.05;;;4.30;76.10;;;;;;5068879;28;22075;-71
2021/11/27 00:47:48;;;;;;;23.85;22.38;;;4.30;75.90;;;;;;5071995;28;20279;-71
2021/11/27 00:50:18;;;;;;;23.13;21.75;;;4.30;76.00;;;;;;5057576;28;20210;-71
2021/11/27 00:52:45;;;;;;;24.77;23.17;;;4.30;75.90;;;;;;5071822;28;20254;-71
2021/11/27 00:55:12;;;;;;;23.45;22.05;;;4.20;76.30;;;;;;5069074;28;20232;-71
2021/11/27 00:57:41;;;;;;;23.77;22.38;;;4.30;76.30;;;;;;5071643;28;20284;-71
2021/11/27 01:00:13;;;;;;;24.73;23.23;;;4.20;76.50;;;;;;5068557;28;20197;-71
2021/11/27 01:02:40;;;;;;;23.73;22.30;;;4.30;76.50;;;;;;5071174;28;20255;-71
2021/11/27 01:05:09;;;;;;;24.05;22.65;;;4.20;76.50;;;;;;5070327;28;20289;-71
2021/11/27 01:07:36;;;;;;;24.05;22.65;;;4.30;76.70;;;;;;5071607;28;20283;-71
2021/11/27 01:10:06;;;;;;;24.80;23.30;;;4.30;76.60;;;;;;5068341;28;20199;-71
2021/11/27 01:12:33;;;;;;;26.35;24.67;;;4.30;76.70;;;;;;5069750;28;20231;-71
2021/11/27 01:15:00;;;;;;;24.20;22.77;;;4.30;76.90;;;;;;5070303;28;20274;-71
2021/11/27 01:17:29;;;;;;;24.42;22.75;;;4.30;76.80;;;;;;5071239;28;20198;-71
2021/11/27 01:19:56;;;;;;;23.92;22.52;;;4.40;76.70;;;;;;5070462;28;20265;-71
2021/11/27 01:22:23;;;;;;;24.63;23.13;;;4.20;77.40;;;;;;5070763;28;20262;-71
2021/11/27 01:24:50;;;;;;;23.95;22.55;;;4.30;77.10;;;;;;5067314;28;20240;-71
2021/11/27 01:27:17;;;;;;;24.40;22.90;;;4.40;76.90;;;;;;5060504;28;20207;-71
2021/11/27 01:29:45;;;;;;;23.75;22.25;;;4.40;76.60;;;;;;5066388;28;20204;-71
2021/11/27 01:32:15;;;;;;;24.23;22.63;;;4.30;76.80;;;;;;5070918;28;20279;-71
2021/11/27 01:34:44;;;;;;;24.30;22.92;;;4.30;76.80;;;;;;5069729;28;20644;-71
2021/11/27 01:37:11;;;;;;;24.50;23.00;;;4.40;76.90;;;;;;5071528;28;20257;-71
2021/11/27 01:39:39;;;;;;;23.90;22.27;;;4.30;76.80;;;;;;5070326;28;20681;-71
2021/11/27 01:42:07;;;;;;;24.15;22.65;;;4.20;77.00;;;;;;5068220;28;20216;-71
2021/11/27 01:44:35;;;;;;;24.80;23.10;;;4.20;77.50;;;;;;5067794;28;20279;-71
2021/11/27 01:47:03;;;;;;;24.30;22.90;;;4.20;77.00;;;;;;5058590;28;20318;-71
2021/11/27 01:49:29;;;;;;;25.08;23.58;;;4.20;77.30;;;;;;5070016;28;20192;-71
2021/11/27 01:51:58;;;;;;;23.55;22.15;;;4.30;77.10;;;;;;5069536;28;20223;-71
2021/11/27 01:54:26;;;;;;;24.50;22.90;;;4.20;77.40;;;;;;5070516;28;20275;-71
2021/11/27 01:56:55;;;;;;;24.40;22.90;;;4.30;77.30;;;;;;5057030;28;20283;-71
2021/11/27 01:59:23;;;;;;;23.65;22.25;;;4.20;76.90;;;;;;5065620;28;20261;-70
2021/11/27 02:01:52;;;;;;;25.35;23.77;;;4.20;77.40;;;;;;5069343;28;20226;-70
2021/11/27 02:04:19;;;;;;;24.88;23.30;;;4.20;77.40;;;;;;5069737;28;20303;-71
2021/11/27 02:06:47;;;;;;;24.60;23.10;;;4.20;77.60;;;;;;5059237;28;20631;-71
2021/11/27 02:09:19;;;;;;;24.25;22.85;;;4.20;78.30;;;;;;5070521;28;20232;-71
2021/11/27 02:11:51;;;;;;;24.65;23.05;;;4.30;78.00;;;;;;5069121;28;20298;-71
2021/11/27 02:14:18;;;;;;;24.10;22.60;;;4.30;77.90;;;;;;5069629;28;20228;-71
2021/11/27 02:16:47;;;;;;;24.08;22.58;;;4.20;78.00;;;;;;5063858;28;20645;-71
2021/11/27 02:19:14;;;;;;;24.77;23.17;;;4.20;78.30;;;;;;5070017;28;20790;-71
2021/11/27 02:21:44;;;;;;;24.20;22.70;;;4.30;78.50;;;;;;5066991;28;20216;-70
2021/11/27 02:24:12;;;;;;;24.55;22.95;;;4.40;78.10;;;;;;5070320;28;20229;-70
2021/11/27 02:26:39;;;;;;;23.23;21.83;;;4.50;78.00;;;;;;5066810;28;20287;-70
2021/11/27 02:29:10;;;;;;;23.10;21.80;;;4.50;78.00;;;;;;5069258;28;20291;-70
2021/11/27 02:31:37;;;;;;;23.15;21.75;;;4.50;78.00;;;;;;5065312;28;20196;-71
2021/11/27 02:34:06;;;;;;;23.98;22.38;;;4.50;78.20;;;;;;5069618;28;20244;-70
2021/11/27 02:36:35;;;;;;;23.30;21.90;;;4.50;78.30;;;;;;5068213;28;20648;-70
2021/11/27 02:39:06;;;;;;;24.10;22.60;;;4.50;78.30;;;;;;5070039;28;20283;-71
2021/11/27 02:41:33;;;;;;;22.55;21.35;;;4.50;78.30;;;;;;5067535;28;20234;-71
2021/11/27 02:44:00;;;;;;;23.65;22.27;;;4.40;78.50;;;;;;5063675;28;20299;-71
2021/11/27 02:46:27;;;;;;;24.50;23.02;;;4.40;78.80;;;;;;5065373;28;20275;-71
2021/11/27 02:48:54;;;;;;;23.60;22.10;;;4.40;78.50;;;;;;5068973;28;20279;-71
2021/11/27 02:51:21;;;;;;;23.35;21.95;;;4.50;78.60;;;;;;5063456;28;20279;-71
2021/11/27 02:53:48;;;;;;;22.90;21.50;;;4.40;78.50;;;;;;5069594;28;20243;-71
2021/11/27 02:56:17;;;;;;;24.17;22.67;;;4.30;78.90;;;;;;5066193;28;20200;-71
2021/11/27 02:58:44;;;;;;;24.17;22.58;;;4.40;78.80;;;;;;5069105;28;20261;-71
2021/11/27 03:01:11;;;;;;;22.98;21.58;;;4.40;78.70;;;;;;5068621;28;20282;-71
2021/11/27 03:03:39;;;;;;;23.67;22.17;;;4.40;78.70;;;;;;5067914;28;20251;-71
2021/11/27 03:06:07;;;;;;;22.13;20.92;;;4.40;78.80;;;;;;5068308;28;20202;-71
2021/11/27 03:08:35;;;;;;;23.08;21.77;;;4.40;78.50;;;;;;5069318;28;20200;-71
2021/11/27 03:11:02;;;;;;;23.50;21.90;;;4.40;78.40;;;;;;5067680;28;20253;-71
2021/11/27 03:13:34;;;;;;;23.58;22.17;;;4.40;78.70;;;;;;5068750;28;20775;-71
2021/11/27 03:16:01;;;;;;;23.17;21.77;;;4.30;79.20;;;;;;5068978;28;20282;-71
2021/11/27 03:18:29;;;;;;;23.55;22.25;;;4.40;79.20;;;;;;5067755;28;20279;-71
2021/11/27 03:20:56;;;;;;;23.05;21.75;;;4.40;79.20;;;;;;5068543;28;20286;-71
2021/11/27 03:23:25;;;;;;;23.70;22.25;;;4.40;79.20;;;;;;5068062;28;20299;-71
2021/11/27 03:25:53;;;;;;;23.63;22.27;;;4.30;79.50;;;;;;5064296;28;20286;-71
2021/11/27 03:28:20;;;;;;;23.80;22.30;;;4.40;79.50;;;;;;5069108;28;20202;-71
2021/11/27 03:30:48;;;;;;;24.30;22.90;;;4.40;79.50;;;;;;5062431;28;20286;-71
2021/11/27 03:33:15;;;;;;;24.30;22.80;;;4.30;80.00;;;;;;5068934;28;20636;-71
2021/11/27 03:35:43;;;;;;;23.60;22.13;;;4.40;79.90;;;;;;5068479;28;20231;-71
2021/11/27 03:38:10;;;;;;;24.45;22.85;;;4.50;79.80;;;;;;5069215;28;20199;-70
2021/11/27 03:40:38;;;;;;;23.55;22.15;;;4.50;79.60;;;;;;5062318;28;20736;-70
2021/11/27 03:43:05;;;;;;;24.63;22.95;;;4.60;79.60;;;;;;5069076;28;20718;-70
2021/11/27 03:45:33;;;;;;;23.85;22.40;;;4.50;80.00;;;;;;5059237;28;20200;-70
2021/11/27 03:48:06;;;;;;;23.63;22.13;;;4.50;80.20;;;;;;5065507;28;20280;-70
2021/11/27 03:50:35;;;;;;;23.48;22.17;;;4.60;80.60;;;;;;5071041;28;20238;-70
2021/11/27 03:53:03;;;;;;;22.23;20.92;;;4.60;80.70;;;;;;5073433;28;20298;-70
2021/11/27 03:55:30;;;;;;;22.33;21.02;;;4.70;81.10;;;;;;5070177;28;20295;-70
2021/11/27 03:57:57;;;;;;;23.30;21.90;;;4.70;80.60;;;;;;5072676;28;20291;-70
2021/11/27 04:00:24;;;;;;;22.15;20.85;;;4.50;81.10;;;;;;5071998;28;20223;-70
2021/11/27 04:02:51;;;;;;;22.30;21.05;;;4.50;81.70;;;;;;5072239;28;20307;-71
2021/11/27 04:05:20;;;;;;;22.75;21.60;;;4.60;81.40;;;;;;5066151;28;20240;-70
2021/11/27 04:07:47;;;;;;;22.63;21.33;;;4.60;81.60;;;;;;5065513;28;20196;-70
2021/11/27 04:10:15;;;;;;;21.83;20.63;;;4.60;81.60;;;;;;5070994;28;20290;-71
2021/11/27 04:12:42;;;;;;;21.40;20.23;;;4.60;81.80;;;;;;5069957;28;20692;-70
2021/11/27 04:15:10;;;;;;;22.00;20.70;;;4.60;81.90;;;;;;5071653;28;20235;-70
2021/11/27 04:17:37;;;;;;;22.02;20.73;;;4.60;81.70;;;;;;5072651;28;20283;-70
2021/11/27 04:20:05;;;;;;;22.85;21.35;;;4.60;81.80;;;;;;5068094;28;20650;-70
2021/11/27 04:22:33;;;;;;;21.90;20.60;;;4.60;81.70;;;;;;5071466;28;20652;-70
2021/11/27 04:25:00;;;;;;;21.17;20.08;;;4.60;81.80;;;;;;5071112;28;20275;-70
2021/11/27 04:27:27;;;;;;;21.20;20.00;;;4.60;81.60;;;;;;5071970;28;20272;-70
2021/11/27 04:29:54;;;;;;;21.35;20.15;;;4.60;82.20;;;;;;5071345;28;20227;-70
2021/11/27 04:32:22;;;;;;;22.20;21.00;;;4.50;82.40;;;;;;5072208;28;20255;-70
2021/11/27 04:34:49;;;;;;;20.52;19.38;;;4.50;82.70;;;;;;5070303;28;20206;-70
2021/11/27 04:37:16;;;;;;;21.08;19.83;;;4.50;82.70;;;;;;5072023;28;20235;-70
2021/11/27 04:39:44;;;;;;;19.40;18.40;;;4.50;82.80;;;;;;5071413;28;20723;-71
2021/11/27 04:42:11;;;;;;;19.42;18.33;;;4.60;82.80;;;;;;5066226;28;20321;-70
2021/11/27 04:44:38;;;;;;;20.65;19.60;;;4.60;82.60;;;;;;5063435;28;20206;-71
2021/11/27 04:47:05;;;;;;;18.77;17.80;;;4.60;82.40;;;;;;5072148;28;20283;-70
2021/11/27 04:49:32;;;;;;;20.25;19.15;;;4.50;82.60;;;;;;5070025;28;20281;-69
2021/11/27 04:51:59;;;;;;;18.95;17.95;;;4.60;82.80;;;;;;5065256;28;20291;-70
2021/11/27 04:54:26;;;;;;;19.70;18.65;;;4.60;82.90;;;;;;5072144;28;20729;-70
2021/11/27 04:56:55;;;;;;;19.10;18.00;;;4.70;82.50;;;;;;5070945;28;20204;-70
2021/11/27 04:59:22;;;;;;;19.77;18.55;;;4.70;82.70;;;;;;5071537;28;20257;-70
2021/11/27 05:01:50;;;;;;;18.88;17.98;;;4.60;82.80;;;;;;5063600;28;20191;-70
2021/11/27 05:04:17;;;;;;;19.80;18.80;;;4.70;82.60;;;;;;5071234;28;20259;-70
2021/11/27 05:06:44;;;;;;;19.42;18.52;;;4.60;82.80;;;;;;5070489;28;20282;-70
2021/11/27 05:09:11;;;;;;;19.58;18.58;;;4.60;82.90;;;;;;5072018;28;20296;-70
2021/11/27 05:11:39;;;;;;;19.95;18.85;;;4.60;82.90;;;;;;5064060;28;20196;-70
2021/11/27 05:14:07;;;;;;;19.13;18.15;;;4.70;82.90;;;;;;5071021;28;20596;-70
2021/11/27 05:16:35;;;;;;;18.90;18.00;;;4.70;82.50;;;;;;5071121;28;20234;-71
2021/11/27 05:19:02;;;;;;;19.70;18.70;;;4.60;82.80;;;;;;5070714;28;20265;-70
2021/11/27 05:21:29;;;;;;;19.15;18.25;;;4.60;82.80;;;;;;5070474;28;20291;-70
2021/11/27 05:23:56;;;;;;;19.67;18.67;;;4.70;82.70;;;;;;5071544;28;20312;-70
2021/11/27 05:26:23;;;;;;;19.90;18.65;;;4.60;82.80;;;;;;5069689;28;20196;-70
2021/11/27 05:28:51;;;;;;;19.10;18.20;;;4.70;82.70;;;;;;5070970;28;20283;-70
2021/11/27 05:31:21;;;;;;;18.90;17.75;;;4.60;82.80;;;;;;5070359;28;20539;-71
2021/11/27 05:33:59;;;;;;;20.00;18.95;;;4.70;82.80;;;;;;5071076;28;20219;-70
2021/11/27 05:36:29;;;;;;;18.80;17.88;;;4.60;83.30;;;;;;5070488;28;20278;-70
2021/11/27 05:38:56;;;;;;;18.92;18.02;;;4.60;83.70;;;;;;5071095;28;20231;-70
2021/11/27 05:41:23;;;;;;;20.35;19.35;;;4.60;83.70;;;;;;5070421;28;20282;-71
2021/11/27 05:43:50;;;;;;;18.77;17.88;;;4.60;83.60;;;;;;5068579;28;20307;-71
2021/11/27 05:46:19;;;;;;;19.23;18.23;;;4.70;83.40;;;;;;5057884;28;20255;-71
2021/11/27 05:48:46;;;;;;;19.00;18.00;;;4.70;83.40;;;;;;5061561;28;20299;-71
2021/11/27 05:51:13;;;;;;;19.38;18.25;;;4.70;83.30;;;;;;5068652;28;20291;-71
2021/11/27 05:53:40;;;;;;;18.77;17.77;;;4.70;83.50;;;;;;5070744;28;20301;-71
2021/11/27 05:56:08;;;;;;;18.05;17.20;;;4.70;84.00;;;;;;5070453;28;20231;-71
2021/11/27 05:58:35;;;;;;;19.02;18.10;;;4.70;83.70;;;;;;5070463;28;20287;-71
2021/11/27 06:01:05;;;;;;;19.88;18.77;;;4.60;84.00;;;;;;5068985;28;20279;-71
2021/11/27 06:03:34;;;;;;;19.15;18.08;;;4.70;84.00;;;;;;5070173;28;20310;-71
2021/11/27 06:06:02;;;;;;;19.77;18.60;;;4.70;84.00;;;;;;5069478;28;20282;-71
2021/11/27 06:08:30;;;;;;;18.60;17.60;;;4.60;84.20;;;;;;5070377;28;20250;-71
2021/11/27 06:10:57;;;;;;;18.95;18.05;;;4.70;84.10;;;;;;5059409;28;20197;-71
2021/11/27 06:13:24;;;;;;;19.52;18.52;;;4.70;84.10;;;;;;5070026;28;20648;-71
2021/11/27 06:15:51;;;;;;;18.83;17.92;;;4.70;84.10;;;;;;5068307;28;20231;-72
2021/11/27 06:18:18;;;;;;;19.42;18.42;;;4.70;84.00;;;;;;5070150;28;20717;-71
2021/11/27 06:20:46;;;;;;;20.10;19.00;;;4.80;84.00;;;;;;5069585;28;20204;-71
2021/11/27 06:23:14;;;;;;;21.13;19.92;;;4.80;84.00;;;;;;5069951;28;20311;-71
2021/11/27 06:25:41;;;;;;;19.00;18.00;;;4.80;84.30;;;;;;5068531;28;20660;-71
2021/11/27 06:28:09;;;;;;;19.50;18.50;;;4.70;84.40;;;;;;5069973;28;20204;-71
2021/11/27 06:30:36;;;;;;;20.30;19.20;;;4.70;84.70;;;;;;5068204;28;20669;-71
2021/11/27 06:33:03;;;;;;;18.52;17.63;;;4.80;84.40;;;;;;5069680;28;20216;-71
2021/11/27 06:35:30;;;;;;;19.63;18.67;;;4.70;84.40;;;;;;5062744;28;20236;-71
2021/11/27 06:37:59;;;;;;;18.75;17.85;;;4.70;84.50;;;;;;5065203;28;20219;-71
2021/11/27 06:40:26;;;;;;;18.52;17.52;;;4.60;84.90;;;;;;5068888;28;20214;-71
2021/11/27 06:42:53;;;;;;;19.67;18.67;;;4.70;85.10;;;;;;5069454;28;20228;-71
2021/11/27 06:45:20;;;;;;;19.35;18.35;;;4.70;84.80;;;;;;5061371;28;20279;-70
2021/11/27 06:47:47;;;;;;;19.10;18.17;;;4.70;84.70;;;;;;5067347;28;20287;-70
2021/11/27 06:50:14;;;;;;;19.17;18.27;;;4.70;84.90;;;;;;5068030;28;20200;-71
2021/11/27 06:52:42;;;;;;;18.35;17.35;;;4.70;84.60;;;;;;5068759;28;20809;-72
2021/11/27 06:55:10;;;;;;;19.35;18.25;;;4.70;84.60;;;;;;5067322;28;20306;-71
2021/11/27 06:57:38;;;;;;;19.05;17.95;;;4.60;84.70;;;;;;5069601;28;20615;-71
2021/11/27 07:00:06;;;;;;;18.70;17.80;;;4.70;84.90;;;;;;5065205;28;20548;-71
2021/11/27 07:02:33;;;;;;;19.98;18.98;;;4.70;84.90;;;;;;5067727;28;20248;-71
2021/11/27 07:05:00;;;;;;;19.63;18.60;;;4.70;84.70;;;;;;5067610;28;20212;-71
2021/11/27 07:07:27;;;;;;;19.23;18.23;;;4.70;84.70;;;;;;5069343;28;20249;-71
2021/11/27 07:09:54;;;;;;;18.65;17.65;;;4.70;85.10;;;;;;5067619;28;20199;-71
2021/11/27 07:12:22;;;;;;;19.48;18.38;;;4.70;85.30;;;;;;5068827;28;20243;-74
2021/11/27 07:14:49;;;;;;;19.45;18.27;;;4.80;85.10;;;;;;5067771;28;20307;-71
2021/11/27 07:17:16;;;;;;;19.55;18.60;;;4.80;85.10;;;;;;5068925;28;20257;-72
2021/11/27 07:19:43;;;;;;;19.02;18.02;;;4.80;85.20;;;;;;5068085;28;20219;-74
2021/11/27 07:22:10;;;;;;;19.42;18.42;;;4.80;85.10;;;;;;5070210;28;20628;-73
2021/11/27 07:24:37;;;;;;;19.70;18.70;;;4.80;84.90;;;;;;5072872;28;20303;-76
2021/11/27 07:27:06;;;;;;;20.67;19.58;;;4.90;84.70;;;;;;5071676;28;20274;-75
2021/11/27 07:29:36;;;;;;;17.98;17.10;;;4.80;84.90;;;;;;5072254;28;20235;-75
2021/11/27 07:32:03;;;;;;;18.88;17.88;;;4.80;84.80;;;;;;5072911;28;20196;-75
2021/11/27 07:34:30;;;;;;;19.45;18.38;;;4.80;84.80;;;;;;5072914;28;20204;-75
2021/11/27 07:36:57;;;;;;;18.58;17.67;;;4.80;84.90;;;;;;5070949;28;20310;-75
2021/11/27 07:39:24;;;;;;;20.73;19.55;;;4.90;84.80;;;;;;5073766;28;20238;-75
2021/11/27 07:41:51;;;;;;;19.63;18.58;;;5.00;84.30;;;;;;5070735;28;20215;-75
2021/11/27 07:44:18;;;;;;;19.25;18.35;;;5.00;84.10;;;;;;5072186;28;20320;-73
2021/11/27 07:46:52;;;;;;;20.10;19.00;;;5.10;84.00;;;;;;5071637;28;20194;-74
2021/11/27 07:49:19;;;;;;;19.15;18.25;;;5.20;83.80;;;;;;5065586;28;20196;-76
2021/11/27 07:51:47;;;;;;;19.70;18.60;;;5.20;83.60;;;;;;5060085;28;20346;-72
2021/11/27 07:54:14;;;;;;;19.65;18.73;;;5.20;83.60;;;;;;5063391;28;20256;-71
2021/11/27 07:56:41;;;;;;;18.80;17.80;;;5.20;83.60;;;;;;5066501;28;20196;-70
2021/11/27 07:59:08;;;;;;;19.23;18.23;;;5.20;83.60;;;;;;5072831;28;20293;-71
2021/11/27 08:01:35;;;;;;;18.25;17.35;;;5.10;84.00;;;;;;5069449;28;20280;-71
2021/11/27 08:04:04;;;;;;;19.45;18.45;;;5.20;84.00;;;;;;5063373;28;20235;-71
2021/11/27 08:06:31;;;;;;;18.80;17.80;;;5.20;83.80;;;;;;5071168;28;20271;-71
2021/11/27 08:08:58;;;;;;;19.60;18.50;;;5.30;83.70;;;;;;5073201;28;20297;-70
2021/11/27 08:11:25;;;;;;;18.67;17.73;;;5.30;83.50;;;;;;5061391;28;20192;-70
2021/11/27 08:13:52;;;;;;;19.50;18.60;;;5.30;83.60;;;;;;5062808;28;20220;-70
2021/11/27 08:16:20;;;;;;;19.45;18.50;;;5.40;83.60;;;;;;5061571;28;20196;-71
2021/11/27 08:18:50;;;;;;;19.25;18.25;;;5.50;83.60;;;;;;5071295;28;20283;-71
2021/11/27 08:21:19;;;;;;;20.52;19.52;;;5.50;83.30;;;;;;5069478;28;20629;-71
2021/11/27 08:23:46;;;;;;;19.85;18.85;;;5.60;83.40;;;;;;5071127;28;20313;-71
2021/11/27 08:26:13;;;;;;;19.65;18.75;;;5.70;82.70;;;;;;5069562;28;20295;-71
2021/11/27 08:28:40;;;;;;;19.83;18.88;;;5.70;83.50;;;;;;5071037;28;20215;-72
2021/11/27 08:31:07;;;;;;;44.95;22.55;;;5.90;82.90;;;;;;5067562;28;20232;-71
2021/11/27 08:33:34;;;;;;;19.70;18.70;;;6.00;81.90;;;;;;5064603;28;20220;-71
2021/11/27 08:36:02;;;;;;;19.13;18.23;;;6.10;82.30;;;;;;5068365;28;20196;-71
2021/11/27 08:38:30;;;;;;;20.48;19.45;;;6.20;81.30;;;;;;5070529;28;20262;-71
2021/11/27 08:40:58;;;;;;;20.05;18.90;;;6.10;80.80;;;;;;5070891;28;20210;-71
2021/11/27 08:43:25;;;;;;;19.77;18.77;;;6.10;80.90;;;;;;5067383;28;20318;-71
2021/11/27 08:45:52;;;;;;;20.65;19.65;;;6.00;81.20;;;;;;5068546;28;20272;-71
2021/11/27 08:48:19;;;;;;;20.85;19.85;;;6.10;81.10;;;;;;5066315;28;20294;-72
2021/11/27 08:50:47;;;;;;;20.17;18.83;;;6.10;80.90;;;;;;5068845;28;20757;-71
2021/11/27 08:53:14;;;;;;;19.23;18.33;;;6.20;81.20;;;;;;5061612;28;20315;-71
2021/11/27 08:55:43;;;;;;;20.50;19.45;;;6.30;81.90;;;;;;5069606;28;20223;-71
2021/11/27 08:58:10;;;;;;;19.45;18.45;;;6.40;81.00;;;;;;5064977;28;20308;-71
2021/11/27 09:00:37;;;;;;;19.70;18.70;;;6.50;80.80;;;;;;5059704;28;20295;-71
2021/11/27 09:03:05;;;;;;;19.95;18.95;;;6.60;81.40;;;;;;5064910;28;20318;-71
2021/11/27 09:05:33;;;;;;;21.60;20.40;;;6.80;79.80;;;;;;5066124;28;20744;-71
2021/11/27 09:08:00;;;;;;;21.55;20.45;;;6.90;78.50;;;;;;5067141;28;20203;-72
2021/11/27 09:10:27;;;;;;;21.35;20.25;;;7.00;78.10;;;;;;5067677;28;20566;-71
2021/11/27 09:12:56;;;;;;;20.48;19.38;;;7.00;77.70;;;;;;5070655;28;20928;-71
2021/11/27 09:15:23;;;;;;;21.75;20.55;;;7.10;77.40;;;;;;5067445;28;20283;-71
2021/11/27 09:17:50;;;;;;;21.60;20.40;;;7.10;77.60;;;;;;5065102;28;20289;-71
2021/11/27 09:20:17;;;;;;;20.05;19.15;;;7.10;77.60;;;;;;5063956;28;20900;-72
2021/11/27 09:22:49;;;;;;;20.65;19.55;;;7.20;76.50;;;;;;5069536;28;20712;-72
2021/11/27 09:25:16;;;;;;;21.13;20.02;;;7.30;75.60;;;;;;5066330;28;20229;-72
2021/11/27 09:27:42;;;;;;;21.00;19.90;;;7.40;75.90;;;;;;5067034;28;20315;-72
2021/11/27 09:30:14;;;;;;;21.40;20.30;;;7.50;76.40;;;;;;5061979;28;20291;-72
2021/11/27 09:32:41;;;;;;;22.73;21.60;;;7.60;75.50;;;;;;5061717;28;20308;-73
2021/11/27 09:35:09;;;;;;;22.33;21.02;;;7.50;74.80;;;;;;5063110;28;20568;-72
2021/11/27 09:37:36;;;;;;;21.80;20.60;;;7.60;75.00;;;;;;5067046;28;20199;-72
2021/11/27 09:40:06;;;;;;;21.50;20.30;;;7.60;74.90;;;;;;5064367;28;20220;-72
2021/11/27 09:42:33;;;;;;;21.60;20.25;;;7.80;74.80;;;;;;5063555;28;20934;-72
2021/11/27 09:45:02;;;;;;;21.80;20.70;;;7.80;74.40;;;;;;5060987;28;20217;-72
2021/11/27 09:47:33;;;;;;;21.95;20.52;;;7.90;74.40;;;;;;5071101;28;20745;-72
2021/11/27 09:50:03;;;;;;;20.80;19.70;;;7.80;74.90;;;;;;5063448;28;20235;-72
2021/11/27 09:52:30;;;;;;;21.38;20.27;;;7.80;77.20;;;;;;5059387;28;20303;-72
2021/11/27 09:54:58;;;;;;;20.52;19.50;;;7.70;76.30;;;;;;5067609;28;20295;-72
2021/11/27 09:57:26;;;;;;;21.80;20.70;;;7.70;78.10;;;;;;5069032;28;20257;-72
2021/11/27 09:59:53;;;;;;;20.50;19.40;;;7.70;77.10;;;;;;5068853;28;20266;-72
2021/11/27 10:02:23;;;;;;;20.85;19.70;;;7.60;77.90;;;;;;5067901;28;20197;-72
2021/11/27 10:04:54;;;;;;;22.60;21.35;;;7.50;80.40;;;;;;5067164;28;20306;-72
2021/11/27 10:07:22;;;;;;;21.55;20.45;;;7.50;78.30;;;;;;5060106;28;20708;-72
2021/11/27 10:09:51;;;;;;;21.27;20.17;;;7.50;78.60;;;;;;5068122;28;20551;-72
2021/11/27 10:12:20;;;;;;;20.08;19.08;;;7.60;81.20;;;;;;5063709;28;20207;-72
2021/11/27 10:14:47;;;;;;;20.20;19.10;;;7.70;80.40;;;;;;5064618;28;20621;-72
2021/11/27 10:17:16;;;;;;;21.20;20.10;;;7.80;79.30;;;;;;5056234;28;20212;-72
2021/11/27 10:19:57;;;;;;;21.33;20.10;;;7.80;80.20;;;;;;5062217;28;20314;-72
2021/11/27 10:22:27;;;;;;;20.65;19.55;;;7.80;79.30;;;;;;5061258;28;20312;-71
2021/11/27 10:24:56;;;;;;;22.08;20.98;;;7.80;80.20;;;;;;5062265;28;20259;-72
2021/11/27 10:27:27;;;;;;;21.08;19.88;;;7.90;77.60;;;;;;5063990;28;20193;-72
2021/11/27 10:30:05;;;;;;;22.27;21.08;;;7.90;76.80;;;;;;5064337;28;20306;-72
2021/11/27 10:32:36;;;;;;;21.10;20.00;;;8.00;76.60;;;;;;5072029;28;20756;-72
2021/11/27 10:35:09;;;;;;;22.08;20.98;;;8.10;76.00;;;;;;5063968;28;20192;-72
2021/11/27 10:37:40;;;;;;;21.58;20.58;;;8.10;75.60;;;;;;5059991;28;20646;-72
2021/11/27 10:40:11;;;;;;;20.60;19.50;;;8.00;76.10;;;;;;5060381;28;20210;-72
2021/11/27 10:42:41;;;;;;;20.98;19.77;;;8.00;75.30;;;;;;5056445;28;20715;-72
2021/11/27 10:45:14;;;;;;;22.00;20.70;;;8.00;74.40;;;;;;5065166;28;20325;-72
2021/11/27 10:47:43;;;;;;;22.40;21.20;;;8.00;73.60;;;;;;5065715;28;20192;-72
2021/11/27 10:50:18;;;;;;;22.40;21.20;;;7.90;74.30;;;;;;5063729;28;20350;-72
2021/11/27 10:52:45;;;;;;;24.48;23.10;;;8.00;72.80;;;;;;5064377;28;20207;-72
2021/11/27 10:55:21;;;;;;;21.48;20.38;;;8.00;73.40;;;;;;5069105;28;20204;-72
2021/11/27 10:57:49;;;;;;;21.13;19.98;;;8.10;72.80;;;;;;5065092;28;20245;-72
2021/11/27 11:00:45;;;;;;;22.35;21.05;;;8.10;72.70;;;;;;5059637;28;20227;-72
2021/11/27 11:03:27;;;;;;;22.13;20.92;;;8.00;73.00;;;;;;5018579;28;20235;-72
2021/11/27 11:05:58;;;;;;;22.77;21.45;;;8.00;72.60;;;;;;5066230;28;20861;-72
2021/11/27 11:08:33;;;;;;;20.65;19.45;;;8.00;72.30;;;;;;5068948;28;20196;-71
2021/11/27 11:11:02;;;;;;;22.45;21.20;;;8.10;73.00;;;;;;5068424;28;20196;-72
2021/11/27 11:13:34;;;;;;;21.98;20.88;;;8.00;72.50;;;;;;5067666;28;20216;-72
2021/11/27 11:16:09;;;;;;;21.27;20.05;;;8.10;72.70;;;;;;5067557;28;20196;-72
2021/11/27 11:18:36;;;;;;;21.70;20.52;;;8.10;72.90;;;;;;5066566;28;20202;-73
2021/11/27 11:21:06;;;;;;;22.75;21.05;;;8.10;72.40;;;;;;5067475;28;20633;-72
2021/11/27 11:23:35;;;;;;;22.30;21.10;;;8.00;71.90;;;;;;5062584;28;20298;-73
2021/11/27 11:26:05;;;;;;;21.98;20.77;;;8.00;71.30;;;;;;5064869;28;20215;-72
2021/11/27 11:28:35;;;;;;;22.02;20.92;;;8.00;71.80;;;;;;5068473;28;20283;-72
2021/11/27 11:31:05;;;;;;;20.52;19.42;;;8.00;71.30;;;;;;5068036;28;20588;-72
2021/11/27 11:33:34;;;;;;;20.65;19.65;;;7.90;72.20;;;;;;5068859;28;20226;-73
2021/11/27 11:36:05;;;;;;;21.70;20.60;;;7.70;73.20;;;;;;5067027;28;20203;-72
2021/11/27 11:38:32;;;;;;;22.80;21.23;;;7.80;72.30;;;;;;5066254;28;20196;-73
2021/11/27 11:40:59;;;;;;;21.85;20.65;;;7.90;72.60;;;;;;5064665;28;20279;-72
2021/11/27 11:43:26;;;;;;;22.52;21.33;;;7.90;72.60;;;;;;5061766;28;20704;-72
2021/11/27 11:45:53;;;;;;;22.83;21.63;;;7.80;74.40;;;;;;5058886;28;20227;-73
2021/11/27 11:48:24;;;;;;;21.90;20.70;;;8.00;72.50;;;;;;5073055;28;20233;-72
2021/11/27 11:51:03;;;;;;;21.33;20.17;;;7.90;73.10;;;;;;5057522;28;20207;-72
2021/11/27 11:53:37;;;;;;;22.17;20.98;;;8.00;72.80;;;;;;5066909;28;20243;-72
2021/11/27 11:56:06;;;;;;;22.20;21.00;;;8.30;73.10;;;;;;5065349;28;20701;-72
2021/11/27 11:58:37;;;;;;;21.75;20.45;;;8.40;72.20;;;;;;5067875;28;20204;-73
2021/11/27 12:01:07;;;;;;;20.42;19.23;;;8.60;71.30;;;;;;5067160;28;20220;-73
2021/11/27 12:03:39;;;;;;;19.85;18.85;;;8.70;71.30;;;;;;5067768;28;20235;-73
2021/11/27 12:06:12;;;;;;;20.85;19.75;;;8.60;71.10;;;;;;5068218;28;20207;-71
2021/11/27 12:09:07;;;;;;;21.45;20.35;;;8.50;71.30;;;;;;5063842;28;20609;-71
2021/11/27 12:12:05;;;;;;;22.15;20.95;;;8.60;71.20;;;;;;5067885;28;20784;-72
2021/11/27 12:14:59;;;;;;;20.85;19.75;;;8.60;72.00;;;;;;5063798;28;20211;-72
2021/11/27 12:17:26;;;;;;;25.08;23.67;;;8.40;74.10;;;;;;5069064;28;20196;-71
2021/11/27 12:19:55;;;;;;;22.63;21.40;;;8.40;73.40;;;;;;5067291;28;22248;-72
2021/11/27 12:22:42;;;;;;;20.33;19.33;;;8.40;72.30;;;;;;5072037;28;20228;-72
2021/11/27 12:25:30;;;;;;;22.20;20.95;;;8.30;72.20;;;;;;5063826;28;20614;-72
2021/11/27 12:28:24;;;;;;;21.13;20.02;;;8.10;72.70;;;;;;5066134;28;20290;-72
2021/11/27 12:31:10;;;;;;;22.10;21.00;;;8.10;73.60;;;;;;5068427;28;20681;-71
2021/11/27 12:33:58;;;;;;;22.65;21.45;;;8.10;73.00;;;;;;5066720;28;20235;-70
2021/11/27 12:36:46;;;;;;;21.67;20.38;;;8.00;75.40;;;;;;5069917;28;20299;-71
2021/11/27 12:39:33;;;;;;;21.95;20.85;;;8.00;75.00;;;;;;5069630;28;20222;-70
2021/11/27 12:42:31;;;;;;;21.75;20.55;;;8.00;74.40;;;;;;5071502;28;20645;-70
2021/11/27 12:44:59;;;;;;;21.60;20.25;;;8.10;73.60;;;;;;5065175;28;20258;-70